หน้าหลัก
METAR-TAF:

METAR-TAF

ท่าอากาศยาน :

ท่าอากาศยานนานาชาติบรูไน

ประเทศบรูไน, บรูไน

ละติจูด: 04-56N, ลองจิจูด: 114-56E, ความสูง: 22 ม.

การสังเกตสภาพอากาศปัจจุบัน

รายงานได้ทำขึ้นเมื่อ 15 นาทีที่แล้ว ณ เวลา 08:30 UTC
ลม 11 นอตจากเหนือ
อุณหภูมิ 30°C
ความชื้น 84%
ความกดอากาศ 1008 hPa
ทัศนวิสัย 10 กม. หรือมากกว่า
มีเมฆน้อยที่ความสูง 1600 ฟุต
มีเมฆน้อยที่ความสูง 1700 ฟุต, คิวมูโลนิมบัส.
มีเมฆเป็นส่วนมากเว้นเป็นระยะที่ความสูง 30000 ฟุต

METAR: WBSB 250830Z 36011KT 9999 FEW016 FEW017CB BKN300 30/27 Q1008 NOSIG

เวลา: 16:45 (08:45 UTC)

การพยากรณ์

รายงานได้ทำขึ้นเมื่อ 3 ชั่วโมงและ 45 นาทีที่แล้ว ณ เวลา 05:00 UTC
การพยากรณ์มีผลตั้งแต่วันที่ 25 ณ เวลา 06 UTC จนถึงวันที่ 26 ณ เวลา 12 UTC
ลม 10 นอตจากเหนือ
ทัศนวิสัย 10 กม. หรือมากกว่า
มีเมฆกระจายเป็นบางส่วนที่ความสูง 1500 ฟุต
มีเมฆน้อยที่ความสูง 1600 ฟุต, คิวมูโลนิมบัส.
กำลังกลายเป็น
ตั้งแต่วันที่ 25 ณ เวลา 12 UTC จนถึงวันที่ 25 ณ เวลา 14 UTC
ลม 6 นอตจากเหนือ/ตะวันออกเฉียงเหนือ

TAF: WBSB 250500Z 2506/2612 35010KT 9999 SCT015 FEW016CB BECMG 2512/2514 02006KT

สังเกตการณ์สภาพอากาศและพยากรณ์อากาศของสนามบินมากกว่า 4000 แห่ง (รายงาน METAR และ TAF).

สถานีที่ดูได้จะแสดงไว้ด้วยจุดสีเหลืองและสีแดงบนแผนที่.

เลื่อนเมาส์ไปเหนือจุดเพื่อดูชื่อสถานี.

แล้วคลิกเพื่อดูสังเกตการณ์และการพยากรณ์สภาพอากาศ.

ในการเปลี่ยนแผนที่: คลิกที่ปุ่มสีเขียวที่มีกากบาทสีดำเพื่อซูมเข้า; ที่ปุ่มสีเขียวที่มีขีดเพื่อซูมออก; หรือที่ลูกศรสีเขียวเพื่อไปยังแผนที่ที่อยู่ติดกัน.


METAR-TAF: